Terminal Aerodrome Forecast
Issued by NWS Sterling, VA

Current Version | Previous Version | Graphics & Text | Print | Product List | Glossary On
Versions: 1 2 3 4 5 6 7 8 9 10 11 12 13 14 15 16 17 18 19 20 21 22 23 24 25 26 27 28
000
FTUS41 KLWX 302341
TAFIAD
TAF
KIAD 302341Z 0100/0206 31013KT P6SM -SHRA OVC050
     FM010200 35005KT P6SM -SHRA OVC050
     FM010700 07007KT 5SM -SHRA OVC025
     FM010900 06009KT P6SM OVC008
     FM011500 04008KT P6SM BKN035
     FM012100 32006KT P6SM BKN040
     FM012300 26005KT P6SM BKN040
     FM020400 00000KT P6SM BKN070=

USA.gov is the U.S. government's official web portal to all federal, state and local government web resources and services.